地図

経路データ

SID SEASON NUMBER BASIN SUBBASIN NAME ISO_TIME NATURE LAT LON WMO_WIND WMO_PRES WMO_AGENCY TRACK_TYPE DIST2LAND LANDFALL IFLAG USA_AGENCY USA_ATCF_ID USA_LAT USA_LON USA_RECORD USA_STATUS USA_WIND USA_PRES USA_SSHS USA_R34_NE USA_R34_SE USA_R34_SW USA_R34_NW USA_R50_NE USA_R50_SE USA_R50_SW USA_R50_NW USA_R64_NE USA_R64_SE USA_R64_SW USA_R64_NW USA_POCI USA_ROCI USA_RMW USA_EYE TOKYO_LAT TOKYO_LON TOKYO_GRADE TOKYO_WIND TOKYO_PRES TOKYO_R50_DIR TOKYO_R50_LONG TOKYO_R50_SHORT TOKYO_R30_DIR TOKYO_R30_LONG TOKYO_R30_SHORT TOKYO_LAND CMA_LAT CMA_LON CMA_CAT CMA_WIND CMA_PRES HKO_LAT HKO_LON HKO_CAT HKO_WIND HKO_PRES NEWDELHI_LAT NEWDELHI_LON NEWDELHI_GRADE NEWDELHI_WIND NEWDELHI_PRES NEWDELHI_CI NEWDELHI_DP NEWDELHI_POCI REUNION_LAT REUNION_LON REUNION_TYPE REUNION_WIND REUNION_PRES REUNION_TNUM REUNION_CI REUNION_RMW REUNION_R34_NE REUNION_R34_SE REUNION_R34_SW REUNION_R34_NW REUNION_R50_NE REUNION_R50_SE REUNION_R50_SW REUNION_R50_NW REUNION_R64_NE REUNION_R64_SE REUNION_R64_SW REUNION_R64_NW BOM_LAT BOM_LON BOM_TYPE BOM_WIND BOM_PRES BOM_TNUM BOM_CI BOM_RMW BOM_R34_NE BOM_R34_SE BOM_R34_SW BOM_R34_NW BOM_R50_NE BOM_R50_SE BOM_R50_SW BOM_R50_NW BOM_R64_NE BOM_R64_SE BOM_R64_SW BOM_R64_NW BOM_ROCI BOM_POCI BOM_EYE BOM_POS_METHOD BOM_PRES_METHOD NADI_LAT NADI_LON NADI_CAT NADI_WIND NADI_PRES WELLINGTON_LAT WELLINGTON_LON WELLINGTON_WIND WELLINGTON_PRES DS824_LAT DS824_LON DS824_STAGE DS824_WIND DS824_PRES TD9636_LAT TD9636_LON TD9636_STAGE TD9636_WIND TD9636_PRES TD9635_LAT TD9635_LON TD9635_WIND TD9635_PRES TD9635_ROCI NEUMANN_LAT NEUMANN_LON NEUMANN_CLASS NEUMANN_WIND NEUMANN_PRES MLC_LAT MLC_LON MLC_CLASS MLC_WIND MLC_PRES USA_GUST BOM_GUST BOM_GUST_PER REUNION_GUST REUNION_GUST_PER USA_SEAHGT USA_SEARAD_NE USA_SEARAD_SE USA_SEARAD_SW USA_SEARAD_NW STORM_SPEED STORM_DIR
1956062S21115 1956 24 SI WA NOT_NAMED 1956-03-02 00:00:00 TS -21.3000 114.600 spur-other 54 54 _________O____ -1 -21.3000 114.600 TC 70 970 7 241
1956062S21115 1956 24 SI WA NOT_NAMED 1956-03-02 00:20:00 TS -21.3193 114.566 spur-other 54 56 _________P____ -1 -21.3219 114.562 TC 7 239
1956062S21115 1956 24 SI WA NOT_NAMED 1956-03-02 01:00:00 TS -21.3583 114.498 spur-other 45 45 _________P____ -1 -21.3657 114.486 TC 7 238
1956062S21115 1956 24 SI WA NOT_NAMED 1956-03-02 03:00:00 TS -21.4800 114.285 spur-other 45 22 _________P____ -1 -21.4988 114.258 TC 7 237
1956062S21115 1956 24 SI WA NOT_NAMED 1956-03-02 06:00:00 TS -21.6809 113.955 spur-other 22 22 _________P____ -1 -21.7091 113.921 TC 7 236
1956062S21115 1956 24 SI WA NOT_NAMED 1956-03-02 08:00:00 TS -21.8315 113.731 spur-other 32 30 _________P____ -1 -21.8617 113.701 TC 8 233
1956062S21115 1956 24 SI WA NOT_NAMED 1956-03-02 09:00:00 TS -21.9130 113.620 spur-other 38 32 _________P____ -1 -21.9431 113.594 TC 8 229
1956062S21115 1956 24 SI WA NOT_NAMED 1956-03-02 12:00:00 TS -22.1863 113.293 spur-other 52 52 _________P____ -1 -22.2131 113.282 TC 8 224
1956062S21115 1956 24 SI WA NOT_NAMED 1956-03-02 15:00:00 TS -22.5112 112.986 spur-other 62 61 _________P____ -1 -22.5314 112.992 TC 9 217
1956062S21115 1956 24 SI WA NOT_NAMED 1956-03-02 18:00:00 TS -22.8981 112.710 spur-other 98 98 _________P____ -1 -22.9103 112.728 TC 10 209
1956062S21115 1956 24 SI WA NOT_NAMED 1956-03-02 21:00:00 TS -23.3575 112.477 spur-other 116 114 _________P____ -1 -23.3624 112.495 TC 11 201
1956062S21115 1956 24 SI WA NOT_NAMED 1956-03-03 00:00:00 TS -23.9000 112.300 spur-other 121 116 _________O____ -1 -23.9000 112.300 TC 70 970 12 196
1956062S21115 1956 24 SI WA NOT_NAMED 1956-03-03 01:00:00 TS -24.1000 112.244 spur-other 126 121 _________P____ -1 -24.1000 112.244 TC 70 970 13 192
1956062S21115 1956 24 SI WA NOT_NAMED 1956-03-03 03:00:00 TS -24.5254 112.154 spur-other 121 121 _________P____ -1 -24.5254 112.154 TC 70 971 13 187
1956062S21115 1956 24 SI WA NOT_NAMED 1956-03-03 06:00:00 TS -25.2000 112.100 spur-other 141 134 _________O____ -1 -25.2000 112.100 TC 70 972 14 182
1956062S21115 1956 24 SI WA NOT_NAMED 1956-03-03 07:00:00 TS -25.4277 112.110 spur-other 134 114 _________P____ -1 -25.4277 112.110 TC 14 175
1956062S21115 1956 24 SI WA NOT_NAMED 1956-03-03 09:00:00 TS -25.8835 112.175 spur-other 112 92 _________P____ -1 -25.8835 112.175 TC 14 168
1956062S21115 1956 24 SI WA NOT_NAMED 1956-03-03 12:00:00 TS -26.5676 112.369 spur-other 95 95 _________P____ -1 -26.5676 112.369 TC 14 162
1956062S21115 1956 24 SI WA NOT_NAMED 1956-03-03 15:00:00 TS -27.2520 112.661 spur-other 111 108 _________P____ -1 -27.2520 112.661 TC 15 157
1956062S21115 1956 24 SI WA NOT_NAMED 1956-03-03 18:00:00 TS -27.9359 113.028 spur-other 108 90 _________P____ -1 -27.9359 113.028 TC 15 153
1956062S21115 1956 24 SI WA NOT_NAMED 1956-03-03 21:00:00 TS -28.6188 113.449 spur-other 96 84 _________P____ -1 -28.6188 113.449 TC 16 151
1956062S21115 1956 24 SI WA NOT_NAMED 1956-03-04 00:00:00 TS -29.3000 113.900 spur-other 87 _________O____ -1 -29.3000 113.900 TC 60 980 16 150

IBTrACS Databaseについて

本データベースは、米国NOAAが公開する1842年以降の世界の熱帯低気圧のベストトラックデータアーカイブInternational Best Track Archive for Climate Stewardship (IBTrACS)を、ウェブで閲覧しやすい形式に変換したものです。

最終更新日:2021-10-21